sensor_id;sensor_type;location;lat;lon;timestamp;pressure;altitude;pressure_sealevel;temperature;humidity
49194;BME280;35029;50.804;12.866;2022-11-20T00:02:15;97276.50;;;-6.42;86.46
49194;BME280;35029;50.804;12.866;2022-11-20T00:04:40;97282.56;;;-6.43;85.90
49194;BME280;35029;50.804;12.866;2022-11-20T00:07:06;97280.09;;;-6.45;86.47
49194;BME280;35029;50.804;12.866;2022-11-20T00:09:31;97279.78;;;-6.53;85.96
49194;BME280;35029;50.804;12.866;2022-11-20T00:11:56;97280.19;;;-6.59;86.12
49194;BME280;35029;50.804;12.866;2022-11-20T00:14:22;97277.78;;;-6.63;85.94
49194;BME280;35029;50.804;12.866;2022-11-20T00:16:47;97277.88;;;-6.64;85.56
49194;BME280;35029;50.804;12.866;2022-11-20T00:19:13;97282.13;;;-6.63;86.39
49194;BME280;35029;50.804;12.866;2022-11-20T00:21:38;97263.03;;;-6.73;86.04
49194;BME280;35029;50.804;12.866;2022-11-20T00:24:04;97276.31;;;-6.67;86.34
49194;BME280;35029;50.804;12.866;2022-11-20T00:26:30;97270.25;;;-6.66;86.36
49194;BME280;35029;50.804;12.866;2022-11-20T00:28:58;97261.28;;;-6.73;86.12
49194;BME280;35029;50.804;12.866;2022-11-20T00:31:25;97273.97;;;-6.70;85.01
49194;BME280;35029;50.804;12.866;2022-11-20T00:33:51;97238.53;;;-6.93;85.67
49194;BME280;35029;50.804;12.866;2022-11-20T00:36:21;97263.97;;;-6.74;86.09
49194;BME280;35029;50.804;12.866;2022-11-20T00:38:51;97278.31;;;-6.70;85.71
49194;BME280;35029;50.804;12.866;2022-11-20T00:41:17;97259.06;;;-6.79;85.14
49194;BME280;35029;50.804;12.866;2022-11-20T00:43:43;97276.41;;;-6.81;85.61
49194;BME280;35029;50.804;12.866;2022-11-20T00:46:21;97276.69;;;-6.86;85.76
49194;BME280;35029;50.804;12.866;2022-11-20T00:48:47;97280.31;;;-6.88;86.21
49194;BME280;35029;50.804;12.866;2022-11-20T00:51:18;97272.47;;;-6.87;86.57
49194;BME280;35029;50.804;12.866;2022-11-20T00:53:44;97271.53;;;-6.86;87.15
49194;BME280;35029;50.804;12.866;2022-11-20T00:56:12;97252.22;;;-7.06;86.36
49194;BME280;35029;50.804;12.866;2022-11-20T00:58:40;97282.56;;;-6.97;88.03
49194;BME280;35029;50.804;12.866;2022-11-20T01:01:14;97282.16;;;-6.90;88.25
49194;BME280;35029;50.804;12.866;2022-11-20T01:03:43;97284.72;;;-6.90;88.67
49194;BME280;35029;50.804;12.866;2022-11-20T01:06:14;97272.66;;;-6.90;88.83
49194;BME280;35029;50.804;12.866;2022-11-20T01:08:40;97271.53;;;-6.86;88.40
49194;BME280;35029;50.804;12.866;2022-11-20T01:11:14;97270.00;;;-6.88;87.49
49194;BME280;35029;50.804;12.866;2022-11-20T01:13:40;97274.03;;;-6.84;86.96
49194;BME280;35029;50.804;12.866;2022-11-20T01:18:57;97242.94;;;-6.96;86.14
49194;BME280;35029;50.804;12.866;2022-11-20T01:21:26;97264.00;;;-6.89;86.07
49194;BME280;35029;50.804;12.866;2022-11-20T01:23:52;97265.03;;;-6.91;86.10
49194;BME280;35029;50.804;12.866;2022-11-20T01:26:21;97243.78;;;-6.95;86.62
49194;BME280;35029;50.804;12.866;2022-11-20T01:28:47;97258.03;;;-6.89;86.08
49194;BME280;35029;50.804;12.866;2022-11-20T01:31:24;97263.28;;;-6.91;85.49
49194;BME280;35029;50.804;12.866;2022-11-20T01:33:52;97237.28;;;-7.01;85.23
49194;BME280;35029;50.804;12.866;2022-11-20T01:36:20;97254.00;;;-6.93;86.00
49194;BME280;35029;50.804;12.866;2022-11-20T01:38:46;97252.34;;;-6.94;85.97
49194;BME280;35029;50.804;12.866;2022-11-20T01:41:13;97242.56;;;-6.89;86.73
49194;BME280;35029;50.804;12.866;2022-11-20T01:44:00;97230.50;;;-6.89;86.29
49194;BME280;35029;50.804;12.866;2022-11-20T01:46:25;97241.00;;;-6.92;85.88
49194;BME280;35029;50.804;12.866;2022-11-20T01:48:58;97251.88;;;-6.87;85.56
49194;BME280;35029;50.804;12.866;2022-11-20T01:51:49;97242.69;;;-6.91;84.93
49194;BME280;35029;50.804;12.866;2022-11-20T01:54:23;97236.00;;;-7.08;85.57
49194;BME280;35029;50.804;12.866;2022-11-20T01:56:54;97247.66;;;-7.02;85.82
49194;BME280;35029;50.804;12.866;2022-11-20T01:59:23;97237.19;;;-6.99;85.59
49194;BME280;35029;50.804;12.866;2022-11-20T02:01:49;97237.47;;;-7.04;86.32
49194;BME280;35029;50.804;12.866;2022-11-20T02:04:15;97238.47;;;-7.06;86.24
49194;BME280;35029;50.804;12.866;2022-11-20T02:06:46;97236.09;;;-7.09;86.22
49194;BME280;35029;50.804;12.866;2022-11-20T02:09:14;97216.94;;;-7.18;85.86
49194;BME280;35029;50.804;12.866;2022-11-20T02:11:40;97243.75;;;-7.08;85.39
49194;BME280;35029;50.804;12.866;2022-11-20T02:14:06;97241.66;;;-7.16;85.42
49194;BME280;35029;50.804;12.866;2022-11-20T02:16:37;97233.00;;;-7.15;86.09
49194;BME280;35029;50.804;12.866;2022-11-20T02:19:09;97230.97;;;-7.09;86.23
49194;BME280;35029;50.804;12.866;2022-11-20T02:22:01;97226.13;;;-7.14;85.47
49194;BME280;35029;50.804;12.866;2022-11-20T02:24:27;97230.84;;;-7.08;84.55
49194;BME280;35029;50.804;12.866;2022-11-20T02:27:01;97218.16;;;-7.24;84.05
49194;BME280;35029;50.804;12.866;2022-11-20T02:30:11;97203.78;;;-7.28;85.42
49194;BME280;35029;50.804;12.866;2022-11-20T02:32:34;97220.78;;;-7.25;85.13
49194;BME280;35029;50.804;12.866;2022-11-20T02:35:08;97223.66;;;-7.30;85.09
49194;BME280;35029;50.804;12.866;2022-11-20T02:37:36;97205.19;;;-7.37;85.70
49194;BME280;35029;50.804;12.866;2022-11-20T02:40:02;97204.19;;;-7.34;85.29
49194;BME280;35029;50.804;12.866;2022-11-20T02:42:28;97221.63;;;-7.25;85.60
49194;BME280;35029;50.804;12.866;2022-11-20T02:44:54;97205.50;;;-7.41;85.04
49194;BME280;35029;50.804;12.866;2022-11-20T02:47:20;97213.75;;;-7.36;85.37
49194;BME280;35029;50.804;12.866;2022-11-20T02:49:46;97212.13;;;-7.37;85.00
49194;BME280;35029;50.804;12.866;2022-11-20T02:52:11;97222.50;;;-7.39;84.98
49194;BME280;35029;50.804;12.866;2022-11-20T02:54:36;97224.88;;;-7.36;84.97
49194;BME280;35029;50.804;12.866;2022-11-20T02:57:02;97219.19;;;-7.41;84.71
49194;BME280;35029;50.804;12.866;2022-11-20T02:59:28;97214.63;;;-7.50;85.16
49194;BME280;35029;50.804;12.866;2022-11-20T03:01:53;97222.59;;;-7.40;84.85
49194;BME280;35029;50.804;12.866;2022-11-20T03:04:19;97214.59;;;-7.36;85.64
49194;BME280;35029;50.804;12.866;2022-11-20T03:06:45;97219.75;;;-7.36;84.70
49194;BME280;35029;50.804;12.866;2022-11-20T03:09:10;97197.13;;;-7.45;84.57
49194;BME280;35029;50.804;12.866;2022-11-20T03:11:36;97209.44;;;-7.36;84.31
49194;BME280;35029;50.804;12.866;2022-11-20T03:14:03;97208.59;;;-7.36;84.37
49194;BME280;35029;50.804;12.866;2022-11-20T03:16:31;97214.59;;;-7.36;84.99
49194;BME280;35029;50.804;12.866;2022-11-20T03:18:57;97221.06;;;-7.43;83.86
49194;BME280;35029;50.804;12.866;2022-11-20T03:21:22;97208.34;;;-7.46;85.01
49194;BME280;35029;50.804;12.866;2022-11-20T03:23:48;97218.41;;;-7.56;84.85
49194;BME280;35029;50.804;12.866;2022-11-20T03:26:17;97208.09;;;-7.56;85.30
49194;BME280;35029;50.804;12.866;2022-11-20T03:28:49;97193.78;;;-7.60;85.82
49194;BME280;35029;50.804;12.866;2022-11-20T03:31:16;97217.19;;;-7.50;85.14
49194;BME280;35029;50.804;12.866;2022-11-20T03:33:43;97202.66;;;-7.51;85.41
49194;BME280;35029;50.804;12.866;2022-11-20T03:36:12;97201.28;;;-7.42;85.77
49194;BME280;35029;50.804;12.866;2022-11-20T03:38:37;97203.03;;;-7.43;85.22
49194;BME280;35029;50.804;12.866;2022-11-20T03:41:08;97180.22;;;-7.49;84.87
49194;BME280;35029;50.804;12.866;2022-11-20T03:43:34;97196.41;;;-7.47;83.67
49194;BME280;35029;50.804;12.866;2022-11-20T03:46:00;97197.00;;;-7.56;84.04
49194;BME280;35029;50.804;12.866;2022-11-20T03:48:26;97191.94;;;-7.58;84.41
49194;BME280;35029;50.804;12.866;2022-11-20T03:50:53;97197.81;;;-7.56;84.44
49194;BME280;35029;50.804;12.866;2022-11-20T03:53:19;97178.44;;;-7.61;84.70
49194;BME280;35029;50.804;12.866;2022-11-20T03:55:50;97180.69;;;-7.57;84.59
49194;BME280;35029;50.804;12.866;2022-11-20T03:58:16;97191.09;;;-7.58;84.43
49194;BME280;35029;50.804;12.866;2022-11-20T04:00:41;97176.41;;;-7.56;84.98
49194;BME280;35029;50.804;12.866;2022-11-20T04:03:07;97178.78;;;-7.53;85.09
49194;BME280;35029;50.804;12.866;2022-11-20T04:05:33;97175.28;;;-7.52;84.91
49194;BME280;35029;50.804;12.866;2022-11-20T04:07:59;97172.06;;;-7.56;84.63
49194;BME280;35029;50.804;12.866;2022-11-20T04:10:24;97174.72;;;-7.57;85.18
49194;BME280;35029;50.804;12.866;2022-11-20T04:12:50;97179.47;;;-7.51;85.04
49194;BME280;35029;50.804;12.866;2022-11-20T04:15:16;97171.50;;;-7.47;85.10
49194;BME280;35029;50.804;12.866;2022-11-20T04:17:41;97179.94;;;-7.44;84.65
49194;BME280;35029;50.804;12.866;2022-11-20T04:20:07;97169.19;;;-7.51;84.62
49194;BME280;35029;50.804;12.866;2022-11-20T04:22:33;97151.50;;;-7.70;84.00
49194;BME280;35029;50.804;12.866;2022-11-20T04:24:59;97177.41;;;-7.59;85.15
49194;BME280;35029;50.804;12.866;2022-11-20T04:27:24;97176.50;;;-7.58;85.02
49194;BME280;35029;50.804;12.866;2022-11-20T04:29:50;97175.41;;;-7.68;85.08
49194;BME280;35029;50.804;12.866;2022-11-20T04:32:15;97177.97;;;-7.68;84.57
49194;BME280;35029;50.804;12.866;2022-11-20T04:34:43;97182.22;;;-7.67;84.77
49194;BME280;35029;50.804;12.866;2022-11-20T04:37:08;97158.25;;;-7.82;85.24
49194;BME280;35029;50.804;12.866;2022-11-20T04:39:34;97175.50;;;-7.70;85.54
49194;BME280;35029;50.804;12.866;2022-11-20T04:41:59;97165.97;;;-7.82;85.01
49194;BME280;35029;50.804;12.866;2022-11-20T04:44:43;97174.03;;;-7.74;85.01
49194;BME280;35029;50.804;12.866;2022-11-20T04:47:09;97181.22;;;-7.79;84.96
49194;BME280;35029;50.804;12.866;2022-11-20T04:49:34;97180.09;;;-7.75;85.71
49194;BME280;35029;50.804;12.866;2022-11-20T04:52:00;97180.09;;;-7.75;85.22
49194;BME280;35029;50.804;12.866;2022-11-20T04:54:25;97178.19;;;-7.71;85.36
49194;BME280;35029;50.804;12.866;2022-11-20T04:56:51;97183.78;;;-7.65;86.05
49194;BME280;35029;50.804;12.866;2022-11-20T04:59:16;97184.28;;;-7.59;85.98
49194;BME280;35029;50.804;12.866;2022-11-20T05:01:42;97187.81;;;-7.60;84.71
49194;BME280;35029;50.804;12.866;2022-11-20T05:04:07;97169.97;;;-7.64;85.77
49194;BME280;35029;50.804;12.866;2022-11-20T05:06:33;97173.91;;;-7.58;84.51
49194;BME280;35029;50.804;12.866;2022-11-20T05:08:59;97173.91;;;-7.58;85.11
49194;BME280;35029;50.804;12.866;2022-11-20T05:11:26;97160.22;;;-7.58;84.81
49194;BME280;35029;50.804;12.866;2022-11-20T05:13:54;97182.56;;;-7.59;84.77
49194;BME280;35029;50.804;12.866;2022-11-20T05:16:22;97173.81;;;-7.56;84.60
49194;BME280;35029;50.804;12.866;2022-11-20T05:18:49;97176.22;;;-7.68;84.26
49194;BME280;35029;50.804;12.866;2022-11-20T05:21:16;97155.13;;;-7.73;85.09
49194;BME280;35029;50.804;12.866;2022-11-20T05:23:43;97158.19;;;-7.68;84.47
49194;BME280;35029;50.804;12.866;2022-11-20T05:26:20;97143.44;;;-7.78;84.20
49194;BME280;35029;50.804;12.866;2022-11-20T05:28:47;97164.75;;;-7.76;84.73
49194;BME280;35029;50.804;12.866;2022-11-20T05:31:21;97159.91;;;-7.81;84.87
49194;BME280;35029;50.804;12.866;2022-11-20T05:33:47;97160.84;;;-7.82;84.57
49194;BME280;35029;50.804;12.866;2022-11-20T05:36:14;97155.78;;;-7.84;85.02
49194;BME280;35029;50.804;12.866;2022-11-20T05:38:41;97156.41;;;-7.80;85.23
49194;BME280;35029;50.804;12.866;2022-11-20T05:41:09;97156.13;;;-7.75;84.17
49194;BME280;35029;50.804;12.866;2022-11-20T05:43:36;97153.31;;;-7.85;83.90
49194;BME280;35029;50.804;12.866;2022-11-20T05:46:03;97144.75;;;-7.86;84.87
49194;BME280;35029;50.804;12.866;2022-11-20T05:48:29;97136.41;;;-7.89;83.99
49194;BME280;35029;50.804;12.866;2022-11-20T05:50:57;97133.91;;;-7.91;84.61
49194;BME280;35029;50.804;12.866;2022-11-20T05:53:23;97139.16;;;-7.92;85.04
49194;BME280;35029;50.804;12.866;2022-11-20T05:56:15;97146.06;;;-7.93;84.70
49194;BME280;35029;50.804;12.866;2022-11-20T05:58:41;97138.44;;;-7.94;84.80
49194;BME280;35029;50.804;12.866;2022-11-20T06:01:11;97133.19;;;-7.93;85.00
49194;BME280;35029;50.804;12.866;2022-11-20T06:03:37;97136.22;;;-8.01;83.94
49194;BME280;35029;50.804;12.866;2022-11-20T06:06:04;97128.59;;;-8.02;84.42
49194;BME280;35029;50.804;12.866;2022-11-20T06:08:30;97125.78;;;-8.12;83.99
49194;BME280;35029;50.804;12.866;2022-11-20T06:10:56;97148.19;;;-8.00;84.71
49194;BME280;35029;50.804;12.866;2022-11-20T06:13:22;97135.31;;;-8.00;84.01
49194;BME280;35029;50.804;12.866;2022-11-20T06:15:51;97144.69;;;-7.99;84.07
49194;BME280;35029;50.804;12.866;2022-11-20T06:18:18;97151.09;;;-7.91;84.53
49194;BME280;35029;50.804;12.866;2022-11-20T06:20:43;97149.94;;;-8.00;83.16
49194;BME280;35029;50.804;12.866;2022-11-20T06:23:09;97149.63;;;-7.95;83.97
49194;BME280;35029;50.804;12.866;2022-11-20T06:25:42;97157.34;;;-7.95;83.14
49194;BME280;35029;50.804;12.866;2022-11-20T06:28:08;97150.84;;;-8.01;82.95
49194;BME280;35029;50.804;12.866;2022-11-20T06:30:35;97142.28;;;-8.02;83.29
49194;BME280;35029;50.804;12.866;2022-11-20T06:33:01;97143.22;;;-8.03;84.12
49194;BME280;35029;50.804;12.866;2022-11-20T06:35:26;97144.78;;;-8.00;83.70
49194;BME280;35029;50.804;12.866;2022-11-20T06:37:52;97147.53;;;-8.03;82.87
49194;BME280;35029;50.804;12.866;2022-11-20T06:40:18;97143.94;;;-8.01;83.81
49194;BME280;35029;50.804;12.866;2022-11-20T06:42:44;97133.31;;;-8.09;84.02
49194;BME280;35029;50.804;12.866;2022-11-20T06:45:09;97142.22;;;-8.00;83.79
49194;BME280;35029;50.804;12.866;2022-11-20T06:47:35;97136.31;;;-8.02;83.63
49194;BME280;35029;50.804;12.866;2022-11-20T06:50:01;97127.78;;;-8.03;84.54
49194;BME280;35029;50.804;12.866;2022-11-20T06:52:26;97110.16;;;-8.09;83.72
49194;BME280;35029;50.804;12.866;2022-11-20T06:54:52;97128.81;;;-8.05;83.63
49194;BME280;35029;50.804;12.866;2022-11-20T06:57:17;97133.84;;;-8.04;84.12
49194;BME280;35029;50.804;12.866;2022-11-20T06:59:43;97142.38;;;-8.03;84.16
49194;BME280;35029;50.804;12.866;2022-11-20T07:02:12;97131.81;;;-7.99;84.32
49194;BME280;35029;50.804;12.866;2022-11-20T07:04:38;97141.81;;;-7.94;84.53
49194;BME280;35029;50.804;12.866;2022-11-20T07:07:04;97149.53;;;-7.94;84.20
49194;BME280;35029;50.804;12.866;2022-11-20T07:09:30;97137.50;;;-7.93;84.28
49194;BME280;35029;50.804;12.866;2022-11-20T07:11:55;97153.22;;;-7.84;84.82
49194;BME280;35029;50.804;12.866;2022-11-20T07:14:22;97155.94;;;-7.72;84.90
49194;BME280;35029;50.804;12.866;2022-11-20T07:16:48;97158.31;;;-7.69;84.04
49194;BME280;35029;50.804;12.866;2022-11-20T07:19:14;97157.03;;;-7.76;83.87
49194;BME280;35029;50.804;12.866;2022-11-20T07:21:40;97158.69;;;-7.75;84.85
49194;BME280;35029;50.804;12.866;2022-11-20T07:24:05;97149.88;;;-7.71;85.25
49194;BME280;35029;50.804;12.866;2022-11-20T07:26:33;97150.94;;;-7.61;85.66
49194;BME280;35029;50.804;12.866;2022-11-20T07:28:58;97146.56;;;-7.46;85.57
49194;BME280;35029;50.804;12.866;2022-11-20T07:31:26;97143.19;;;-7.34;85.87
49194;BME280;35029;50.804;12.866;2022-11-20T07:33:52;97139.41;;;-7.28;84.84
49194;BME280;35029;50.804;12.866;2022-11-20T07:36:18;97142.31;;;-7.20;85.38
49194;BME280;35029;50.804;12.866;2022-11-20T07:38:45;97140.91;;;-7.11;85.27
49194;BME280;35029;50.804;12.866;2022-11-20T07:41:11;97142.47;;;-6.96;85.65
49194;BME280;35029;50.804;12.866;2022-11-20T07:43:38;97130.94;;;-6.77;86.12
49194;BME280;35029;50.804;12.866;2022-11-20T07:46:25;97138.25;;;-6.71;85.26
49194;BME280;35029;50.804;12.866;2022-11-20T07:48:54;97141.97;;;-6.62;86.54
49194;BME280;35029;50.804;12.866;2022-11-20T07:51:20;97139.50;;;-6.51;86.84
49194;BME280;35029;50.804;12.866;2022-11-20T07:53:50;97133.41;;;-6.37;87.91
49194;BME280;35029;50.804;12.866;2022-11-20T07:56:16;97128.13;;;-6.22;88.88
49194;BME280;35029;50.804;12.866;2022-11-20T07:58:43;97131.53;;;-6.09;88.73
49194;BME280;35029;50.804;12.866;2022-11-20T08:01:09;97136.88;;;-5.99;89.29
49194;BME280;35029;50.804;12.866;2022-11-20T08:03:35;97120.38;;;-5.85;89.65
49194;BME280;35029;50.804;12.866;2022-11-20T08:06:05;97122.94;;;-5.72;90.57
49194;BME280;35029;50.804;12.866;2022-11-20T08:08:31;97121.31;;;-5.62;90.91
49194;BME280;35029;50.804;12.866;2022-11-20T08:11:02;97119.94;;;-5.55;91.37
49194;BME280;35029;50.804;12.866;2022-11-20T08:13:46;97116.13;;;-5.49;92.48
49194;BME280;35029;50.804;12.866;2022-11-20T08:16:31;97116.97;;;-5.37;93.06
49194;BME280;35029;50.804;12.866;2022-11-20T08:18:57;97115.25;;;-5.26;92.83
49194;BME280;35029;50.804;12.866;2022-11-20T08:21:23;97116.47;;;-5.18;94.03
49194;BME280;35029;50.804;12.866;2022-11-20T08:23:49;97113.81;;;-5.05;95.64
49194;BME280;35029;50.804;12.866;2022-11-20T08:26:14;97109.03;;;-4.99;95.92
49194;BME280;35029;50.804;12.866;2022-11-20T08:28:40;97108.44;;;-4.91;95.97
49194;BME280;35029;50.804;12.866;2022-11-20T08:31:06;97113.47;;;-4.89;96.14
49194;BME280;35029;50.804;12.866;2022-11-20T08:33:31;97101.75;;;-4.82;96.44
49194;BME280;35029;50.804;12.866;2022-11-20T08:36:02;97106.94;;;-4.82;95.47
49194;BME280;35029;50.804;12.866;2022-11-20T08:38:28;97102.47;;;-4.80;95.94
49194;BME280;35029;50.804;12.866;2022-11-20T08:41:02;97100.97;;;-4.71;96.23
49194;BME280;35029;50.804;12.866;2022-11-20T08:43:47;97078.38;;;-4.69;96.62
49194;BME280;35029;50.804;12.866;2022-11-20T08:46:13;97096.84;;;-4.51;95.84
49194;BME280;35029;50.804;12.866;2022-11-20T08:48:38;97100.97;;;-4.49;95.29
49194;BME280;35029;50.804;12.866;2022-11-20T08:51:04;97096.88;;;-4.40;95.66
49194;BME280;35029;50.804;12.866;2022-11-20T08:53:30;97090.16;;;-4.31;95.36
49194;BME280;35029;50.804;12.866;2022-11-20T08:55:56;97086.03;;;-4.22;95.79
49194;BME280;35029;50.804;12.866;2022-11-20T08:58:23;97089.69;;;-4.25;96.13
49194;BME280;35029;50.804;12.866;2022-11-20T09:00:49;97079.09;;;-4.22;96.93
49194;BME280;35029;50.804;12.866;2022-11-20T09:03:14;97096.97;;;-4.08;97.71
49194;BME280;35029;50.804;12.866;2022-11-20T09:05:40;97087.78;;;-4.00;97.61
49194;BME280;35029;50.804;12.866;2022-11-20T09:08:06;97086.94;;;-3.89;97.71
49194;BME280;35029;50.804;12.866;2022-11-20T09:10:31;97083.50;;;-3.90;97.17
49194;BME280;35029;50.804;12.866;2022-11-20T09:12:57;97082.09;;;-3.83;97.72
49194;BME280;35029;50.804;12.866;2022-11-20T09:15:24;97078.31;;;-3.79;98.26
49194;BME280;35029;50.804;12.866;2022-11-20T09:17:59;97072.28;;;-3.68;98.59
49194;BME280;35029;50.804;12.866;2022-11-20T09:20:26;97076.34;;;-3.54;99.09
49194;BME280;35029;50.804;12.866;2022-11-20T09:22:56;97074.03;;;-3.36;98.80
49194;BME280;35029;50.804;12.866;2022-11-20T09:25:23;97067.84;;;-3.24;98.96
49194;BME280;35029;50.804;12.866;2022-11-20T09:27:57;97071.34;;;-3.13;98.84
49194;BME280;35029;50.804;12.866;2022-11-20T09:30:23;97064.00;;;-3.08;98.72
49194;BME280;35029;50.804;12.866;2022-11-20T09:32:49;97058.59;;;-3.05;98.45
49194;BME280;35029;50.804;12.866;2022-11-20T09:35:14;97064.31;;;-3.01;98.89
49194;BME280;35029;50.804;12.866;2022-11-20T09:37:40;97071.91;;;-2.89;99.04
49194;BME280;35029;50.804;12.866;2022-11-20T09:40:06;97073.81;;;-2.91;99.65
49194;BME280;35029;50.804;12.866;2022-11-20T09:42:47;97070.13;;;-2.88;99.67
49194;BME280;35029;50.804;12.866;2022-11-20T09:50:36;97069.78;;;-2.83;100.00
49194;BME280;35029;50.804;12.866;2022-11-20T09:55:38;97069.97;;;-2.75;100.00
49194;BME280;35029;50.804;12.866;2022-11-20T09:58:06;97071.34;;;-2.71;100.00
49194;BME280;35029;50.804;12.866;2022-11-20T10:00:35;97071.53;;;-2.63;100.00
49194;BME280;35029;50.804;12.866;2022-11-20T10:03:04;97070.63;;;-2.52;100.00
49194;BME280;35029;50.804;12.866;2022-11-20T10:05:37;97064.63;;;-2.43;100.00
49194;BME280;35029;50.804;12.866;2022-11-20T10:08:16;97071.94;;;-2.27;100.00
49194;BME280;35029;50.804;12.866;2022-11-20T10:10:47;97066.06;;;-2.29;100.00
49194;BME280;35029;50.804;12.866;2022-11-20T10:29:39;97066.97;;;-1.99;100.00
49194;BME280;35029;50.804;12.866;2022-11-20T10:32:11;97065.31;;;-2.00;100.00
49194;BME280;35029;50.804;12.866;2022-11-20T10:37:27;97066.50;;;-1.73;100.00
49194;BME280;35029;50.804;12.866;2022-11-20T10:40:20;97063.19;;;-1.75;100.00
49194;BME280;35029;50.804;12.866;2022-11-20T10:43:01;97059.06;;;-1.78;100.00
49194;BME280;35029;50.804;12.866;2022-11-20T10:45:39;97061.69;;;-1.78;100.00
49194;BME280;35029;50.804;12.866;2022-11-20T10:48:24;97059.88;;;-1.77;100.00
49194;BME280;35029;50.804;12.866;2022-11-20T10:53:47;97054.03;;;-1.60;100.00
49194;BME280;35029;50.804;12.866;2022-11-20T10:56:22;97056.09;;;-1.63;100.00
49194;BME280;35029;50.804;12.866;2022-11-20T11:02:15;97043.91;;;-1.53;100.00
49194;BME280;35029;50.804;12.866;2022-11-20T11:04:47;97044.47;;;-1.49;100.00
49194;BME280;35029;50.804;12.866;2022-11-20T11:07:23;97056.25;;;-1.55;100.00
49194;BME280;35029;50.804;12.866;2022-11-20T11:09:54;97040.22;;;-1.50;100.00
49194;BME280;35029;50.804;12.866;2022-11-20T11:12:21;97051.31;;;-1.39;100.00
49194;BME280;35029;50.804;12.866;2022-11-20T11:14:50;97042.44;;;-1.46;100.00
49194;BME280;35029;50.804;12.866;2022-11-20T11:17:23;97046.94;;;-1.38;100.00
49194;BME280;35029;50.804;12.866;2022-11-20T11:20:26;97004.94;;;-1.63;100.00
49194;BME280;35029;50.804;12.866;2022-11-20T11:22:56;97035.84;;;-1.40;100.00
49194;BME280;35029;50.804;12.866;2022-11-20T11:27:54;97019.28;;;-1.29;100.00
49194;BME280;35029;50.804;12.866;2022-11-20T11:30:28;97017.78;;;-1.32;100.00
49194;BME280;35029;50.804;12.866;2022-11-20T11:33:06;97020.94;;;-1.18;100.00
49194;BME280;35029;50.804;12.866;2022-11-20T11:35:32;97013.34;;;-1.12;100.00
49194;BME280;35029;50.804;12.866;2022-11-20T11:38:04;97023.75;;;-1.12;100.00
49194;BME280;35029;50.804;12.866;2022-11-20T11:40:34;97014.06;;;-1.20;100.00
49194;BME280;35029;50.804;12.866;2022-11-20T11:43:04;97007.50;;;-1.24;100.00
49194;BME280;35029;50.804;12.866;2022-11-20T11:45:30;96968.78;;;-1.37;100.00
49194;BME280;35029;50.804;12.866;2022-11-20T11:48:01;97009.41;;;-1.16;100.00
49194;BME280;35029;50.804;12.866;2022-11-20T11:50:29;97000.78;;;-1.16;100.00
49194;BME280;35029;50.804;12.866;2022-11-20T11:55:43;97013.91;;;-1.08;100.00
49194;BME280;35029;50.804;12.866;2022-11-20T11:58:16;97004.34;;;-1.08;100.00
49194;BME280;35029;50.804;12.866;2022-11-20T12:00:57;96991.06;;;-1.14;100.00
49194;BME280;35029;50.804;12.866;2022-11-20T12:03:35;96995.44;;;-1.15;100.00
49194;BME280;35029;50.804;12.866;2022-11-20T12:06:06;96993.09;;;-1.08;100.00
49194;BME280;35029;50.804;12.866;2022-11-20T12:08:49;97003.78;;;-1.11;100.00
49194;BME280;35029;50.804;12.866;2022-11-20T12:11:42;97002.28;;;-1.14;100.00
49194;BME280;35029;50.804;12.866;2022-11-20T12:16:57;96988.53;;;-0.87;100.00
49194;BME280;35029;50.804;12.866;2022-11-20T12:19:23;96980.78;;;-0.69;100.00
49194;BME280;35029;50.804;12.866;2022-11-20T12:24:58;96979.00;;;-1.06;100.00
49194;BME280;35029;50.804;12.866;2022-11-20T12:27:43;96981.84;;;-0.99;100.00
49194;BME280;35029;50.804;12.866;2022-11-20T12:30:20;96976.25;;;-1.04;100.00
49194;BME280;35029;50.804;12.866;2022-11-20T12:35:40;96962.84;;;-0.99;100.00
49194;BME280;35029;50.804;12.866;2022-11-20T12:41:14;96978.44;;;-1.09;100.00
49194;BME280;35029;50.804;12.866;2022-11-20T12:50:28;96983.69;;;-1.19;100.00
49194;BME280;35029;50.804;12.866;2022-11-20T12:53:04;96983.94;;;-1.12;100.00
49194;BME280;35029;50.804;12.866;2022-11-20T13:04:30;96984.06;;;-1.04;100.00
49194;BME280;35029;50.804;12.866;2022-11-20T13:07:10;96980.66;;;-1.05;100.00
49194;BME280;35029;50.804;12.866;2022-11-20T13:09:42;96963.94;;;-1.12;100.00
49194;BME280;35029;50.804;12.866;2022-11-20T13:17:51;96977.19;;;-1.05;100.00
49194;BME280;35029;50.804;12.866;2022-11-20T13:20:19;96954.66;;;-1.14;100.00
49194;BME280;35029;50.804;12.866;2022-11-20T13:22:47;96965.19;;;-1.06;100.00
49194;BME280;35029;50.804;12.866;2022-11-20T13:27:52;96959.84;;;-1.05;100.00
49194;BME280;35029;50.804;12.866;2022-11-20T13:30:22;96962.94;;;-1.01;100.00
49194;BME280;35029;50.804;12.866;2022-11-20T13:35:54;96960.47;;;-0.93;100.00
49194;BME280;35029;50.804;12.866;2022-11-20T13:38:20;96972.00;;;-0.95;100.00
49194;BME280;35029;50.804;12.866;2022-11-20T13:41:01;96971.31;;;-0.97;100.00
49194;BME280;35029;50.804;12.866;2022-11-20T13:43:49;96969.09;;;-0.92;100.00
49194;BME280;35029;50.804;12.866;2022-11-20T13:46:17;96973.88;;;-0.88;100.00
49194;BME280;35029;50.804;12.866;2022-11-20T13:48:50;96970.16;;;-0.85;100.00
49194;BME280;35029;50.804;12.866;2022-11-20T14:01:48;96956.75;;;-0.90;100.00
49194;BME280;35029;50.804;12.866;2022-11-20T14:04:19;96951.84;;;-0.93;100.00
49194;BME280;35029;50.804;12.866;2022-11-20T14:06:48;96962.66;;;-0.88;100.00
49194;BME280;35029;50.804;12.866;2022-11-20T14:09:31;96962.50;;;-0.87;100.00
49194;BME280;35029;50.804;12.866;2022-11-20T14:11:57;96969.88;;;-0.82;100.00
49194;BME280;35029;50.804;12.866;2022-11-20T14:14:25;96970.03;;;-0.83;100.00
49194;BME280;35029;50.804;12.866;2022-11-20T14:16:53;96965.22;;;-0.78;100.00
49194;BME280;35029;50.804;12.866;2022-11-20T14:22:06;96970.41;;;-0.78;100.00
49194;BME280;35029;50.804;12.866;2022-11-20T14:24:33;96956.88;;;-0.82;100.00
49194;BME280;35029;50.804;12.866;2022-11-20T14:26:58;96947.19;;;-0.90;100.00
49194;BME280;35029;50.804;12.866;2022-11-20T14:29:28;96969.03;;;-0.73;100.00
49194;BME280;35029;50.804;12.866;2022-11-20T14:31:56;96977.28;;;-0.77;100.00